createdAt,value
2023-03-27T00:02:18.998Z,1.50
2023-03-27T00:04:47.349Z,1.80
2023-03-27T00:07:17.035Z,1.93
2023-03-27T00:09:45.551Z,1.80
2023-03-27T00:12:13.697Z,1.63
2023-03-27T00:14:41.892Z,1.50
2023-03-27T00:17:11.085Z,1.60
2023-03-27T00:19:39.374Z,1.57
2023-03-27T00:22:07.564Z,2.00
2023-03-27T00:24:37.419Z,1.80
2023-03-27T00:27:05.630Z,2.33
2023-03-27T00:29:34.463Z,1.40
2023-03-27T00:32:02.669Z,1.60
2023-03-27T00:34:31.302Z,1.90
2023-03-27T00:36:59.702Z,1.40
2023-03-27T00:39:28.683Z,1.60
2023-03-27T00:41:58.197Z,1.63
2023-03-27T00:44:27.744Z,1.40
2023-03-27T00:46:57.159Z,0.87
2023-03-27T00:49:26.459Z,1.13
2023-03-27T00:51:57.183Z,0.90
2023-03-27T00:54:29.906Z,0.90
2023-03-27T00:57:00.807Z,0.60
2023-03-27T00:59:31.000Z,0.70
2023-03-27T01:02:01.501Z,0.80
2023-03-27T01:04:29.825Z,0.70
2023-03-27T01:06:58.145Z,0.50
2023-03-27T01:09:26.968Z,0.53
2023-03-27T01:12:07.742Z,0.70
2023-03-27T01:14:39.444Z,0.50
2023-03-27T01:17:15.827Z,0.73
2023-03-27T01:20:11.466Z,0.80
2023-03-27T01:22:53.900Z,0.90
2023-03-27T01:25:34.671Z,0.90
2023-03-27T01:28:15.661Z,0.90
2023-03-27T01:30:49.427Z,0.90
2023-03-27T01:33:27.847Z,0.93
2023-03-27T01:36:10.940Z,1.10
2023-03-27T01:39:06.431Z,1.20
2023-03-27T01:41:37.599Z,1.13
2023-03-27T01:44:06.861Z,0.90
2023-03-27T01:46:37.185Z,1.20
2023-03-27T01:49:07.469Z,1.10
2023-03-27T01:51:36.862Z,1.20
2023-03-27T01:54:09.786Z,0.90
2023-03-27T01:56:41.176Z,1.00
2023-03-27T01:59:12.976Z,1.03
2023-03-27T02:01:43.533Z,1.23
2023-03-27T02:04:15.102Z,0.97
2023-03-27T02:06:45.789Z,0.90
2023-03-27T02:09:16.406Z,0.80
2023-03-27T02:11:48.962Z,0.70
2023-03-27T02:14:19.201Z,0.90
2023-03-27T02:16:49.340Z,0.60
2023-03-27T02:19:20.735Z,0.80
2023-03-27T02:21:49.110Z,0.80
2023-03-27T02:24:18.707Z,1.13
2023-03-27T02:26:52.481Z,0.70
2023-03-27T02:29:28.121Z,0.60
2023-03-27T02:32:05.131Z,0.90
2023-03-27T02:34:46.767Z,0.60
2023-03-27T02:37:19.190Z,0.73
2023-03-27T02:39:50.778Z,0.60
2023-03-27T02:42:22.959Z,0.80
2023-03-27T02:44:53.449Z,0.60
2023-03-27T02:47:25.388Z,0.57
2023-03-27T02:49:54.268Z,0.53
2023-03-27T02:52:26.128Z,0.70
2023-03-27T02:54:56.054Z,0.73
2023-03-27T02:57:27.601Z,0.63
2023-03-27T02:59:58.093Z,0.63
2023-03-27T03:02:29.590Z,0.70
2023-03-27T03:04:59.826Z,0.53
2023-03-27T03:07:28.083Z,0.80
2023-03-27T03:09:56.229Z,0.70
2023-03-27T03:12:25.928Z,0.70
2023-03-27T03:14:54.186Z,0.60
2023-03-27T03:17:22.466Z,0.70
2023-03-27T03:19:50.729Z,0.70
2023-03-27T03:22:18.959Z,0.80
2023-03-27T03:24:47.434Z,1.10
2023-03-27T03:27:15.681Z,0.90
2023-03-27T03:29:46.304Z,0.70
2023-03-27T03:32:14.592Z,0.90
2023-03-27T03:34:46.584Z,0.70
2023-03-27T03:37:14.899Z,0.90
2023-03-27T03:39:43.093Z,0.83
2023-03-27T03:42:22.473Z,1.13
2023-03-27T03:44:52.978Z,0.93
2023-03-27T03:47:21.145Z,1.37
2023-03-27T03:49:49.315Z,1.10
2023-03-27T03:52:17.499Z,1.33
2023-03-27T03:54:46.813Z,1.00
2023-03-27T03:57:15.418Z,0.90
2023-03-27T03:59:43.875Z,1.40
2023-03-27T04:02:18.045Z,1.23
2023-03-27T04:04:46.742Z,0.90
2023-03-27T04:07:17.824Z,1.20
2023-03-27T04:09:45.969Z,0.90
2023-03-27T04:12:14.105Z,1.20
2023-03-27T04:14:42.422Z,1.30
2023-03-27T04:17:11.249Z,0.80
2023-03-27T04:19:41.756Z,1.10
2023-03-27T04:22:09.967Z,0.93
2023-03-27T04:24:38.141Z,0.90
2023-03-27T04:27:08.202Z,1.10
2023-03-27T04:29:36.381Z,1.10
2023-03-27T04:32:05.643Z,0.87
2023-03-27T04:34:33.838Z,1.00
2023-03-27T04:37:03.376Z,0.70
2023-03-27T04:39:36.106Z,0.80
2023-03-27T04:42:04.405Z,0.70
2023-03-27T04:44:34.853Z,1.03
2023-03-27T04:47:03.101Z,0.50
2023-03-27T04:49:31.287Z,0.87
2023-03-27T04:51:59.518Z,1.03
2023-03-27T04:54:31.711Z,1.00
2023-03-27T04:57:01.841Z,1.47
2023-03-27T04:59:31.674Z,1.30
2023-03-27T05:02:00.094Z,1.07
2023-03-27T05:04:28.364Z,1.33
2023-03-27T05:06:56.984Z,1.43
2023-03-27T05:09:25.364Z,1.40
2023-03-27T05:11:54.833Z,1.30
2023-03-27T05:14:24.848Z,1.40
2023-03-27T05:16:53.244Z,1.60
2023-03-27T05:19:22.019Z,1.30
2023-03-27T05:21:50.161Z,2.00
2023-03-27T05:24:18.311Z,1.50
2023-03-27T05:26:46.454Z,1.77
2023-03-27T05:29:16.708Z,1.67
2023-03-27T05:31:44.991Z,1.80
2023-03-27T05:34:13.523Z,2.00
2023-03-27T05:36:42.796Z,2.23
2023-03-27T05:39:10.963Z,1.80
2023-03-27T05:41:39.231Z,1.57
2023-03-27T05:44:07.777Z,1.97
2023-03-27T05:46:37.361Z,1.97
2023-03-27T05:49:05.691Z,2.90
2023-03-27T05:51:34.191Z,1.87
2023-03-27T05:54:02.408Z,2.00
2023-03-27T05:56:30.766Z,1.80
2023-03-27T05:58:58.951Z,1.87
2023-03-27T06:01:27.833Z,1.77
2023-03-27T06:03:57.555Z,3.00
2023-03-27T06:06:26.541Z,1.80
2023-03-27T06:08:55.989Z,2.00
2023-03-27T06:11:24.162Z,2.20
2023-03-27T06:13:52.349Z,1.60
2023-03-27T06:16:21.250Z,1.67
2023-03-27T06:18:49.632Z,1.80
2023-03-27T06:21:19.261Z,1.67
2023-03-27T06:23:47.696Z,1.60
2023-03-27T06:26:16.974Z,1.40
2023-03-27T06:28:45.222Z,1.47
2023-03-27T06:31:14.797Z,1.27
2023-03-27T06:33:43.645Z,1.20
2023-03-27T06:36:12.300Z,1.17
2023-03-27T06:38:42.458Z,1.30
2023-03-27T06:41:11.023Z,1.50
2023-03-27T06:43:39.324Z,1.17
2023-03-27T06:46:07.833Z,1.60
2023-03-27T06:48:36.418Z,1.33
2023-03-27T06:51:04.727Z,1.20
2023-03-27T06:53:37.302Z,2.27
2023-03-27T06:56:09.547Z,1.13
2023-03-27T06:58:37.753Z,1.47
2023-03-27T07:01:06.271Z,0.90
2023-03-27T07:03:34.458Z,1.07
2023-03-27T07:06:02.980Z,0.90
2023-03-27T07:08:31.266Z,0.90
2023-03-27T07:11:11.527Z,0.80
2023-03-27T07:13:42.570Z,1.00
2023-03-27T07:16:12.356Z,0.90
2023-03-27T07:18:41.830Z,0.90
2023-03-27T07:21:10.102Z,1.10
2023-03-27T07:23:38.268Z,1.10
2023-03-27T07:26:06.706Z,1.10
2023-03-27T07:28:38.301Z,0.87
2023-03-27T07:31:25.882Z,1.00
2023-03-27T07:33:59.110Z,1.17
2023-03-27T07:36:27.532Z,1.23
2023-03-27T07:38:55.861Z,0.80
2023-03-27T07:41:24.062Z,1.03
2023-03-27T07:43:52.283Z,0.97
2023-03-27T07:46:23.931Z,0.80
2023-03-27T07:48:52.118Z,0.93
2023-03-27T07:51:20.291Z,1.03
2023-03-27T07:53:49.243Z,0.97
2023-03-27T07:56:17.968Z,0.93
2023-03-27T07:58:46.262Z,1.10
2023-03-27T08:01:14.744Z,0.90
2023-03-27T08:03:44.413Z,0.93
2023-03-27T08:06:12.897Z,1.10
2023-03-27T08:08:41.368Z,1.00
2023-03-27T08:11:19.432Z,1.10
2023-03-27T08:13:56.007Z,1.00
2023-03-27T08:16:27.739Z,0.80
2023-03-27T08:18:57.637Z,1.00
2023-03-27T08:21:26.221Z,0.93
2023-03-27T08:23:57.319Z,0.97
2023-03-27T08:26:26.448Z,1.17
2023-03-27T08:28:56.135Z,1.23
2023-03-27T08:31:25.521Z,1.17
2023-03-27T08:33:53.932Z,0.80
2023-03-27T08:36:23.525Z,1.10
2023-03-27T08:38:55.182Z,1.00
2023-03-27T08:41:28.327Z,0.93
2023-03-27T08:43:57.729Z,1.20
2023-03-27T08:46:28.923Z,1.10
2023-03-27T08:49:00.037Z,1.30
2023-03-27T08:51:31.449Z,1.40
2023-03-27T08:54:02.105Z,0.83
2023-03-27T08:56:30.288Z,1.10
2023-03-27T08:58:58.536Z,0.97
2023-03-27T09:01:29.563Z,1.27
2023-03-27T09:04:01.919Z,1.50
2023-03-27T09:06:38.231Z,0.90
2023-03-27T09:09:10.712Z,0.90
2023-03-27T09:11:46.820Z,1.03
2023-03-27T09:14:28.040Z,0.90
2023-03-27T09:16:57.094Z,1.07
2023-03-27T09:19:31.642Z,1.03
2023-03-27T09:22:02.731Z,1.40
2023-03-27T09:24:32.922Z,1.40
2023-03-27T09:27:07.164Z,1.20
2023-03-27T09:29:38.101Z,1.60
2023-03-27T09:32:11.160Z,1.50
2023-03-27T09:34:39.384Z,1.20
2023-03-27T09:37:11.835Z,1.70
2023-03-27T09:39:42.585Z,1.40
2023-03-27T09:42:17.006Z,1.50
2023-03-27T09:44:50.190Z,1.47
2023-03-27T09:47:21.300Z,1.37
2023-03-27T09:49:51.090Z,1.33
2023-03-27T09:52:36.143Z,1.20
2023-03-27T09:55:04.589Z,1.30
2023-03-27T09:57:33.769Z,1.00
2023-03-27T10:00:08.030Z,1.10
2023-03-27T10:02:36.227Z,0.60
2023-03-27T10:05:11.941Z,1.10
2023-03-27T10:07:41.852Z,1.30
2023-03-27T10:10:12.264Z,1.17
2023-03-27T10:12:41.475Z,1.10
2023-03-27T10:15:27.590Z,1.40
2023-03-27T10:17:55.875Z,1.23
2023-03-27T10:20:24.373Z,0.80
2023-03-27T10:22:59.616Z,1.20
2023-03-27T10:25:31.075Z,1.33
2023-03-27T10:28:08.959Z,1.00
2023-03-27T10:30:40.446Z,1.10
2023-03-27T10:33:09.270Z,1.00
2023-03-27T10:35:39.242Z,1.20
2023-03-27T10:38:14.157Z,0.97
2023-03-27T10:40:43.236Z,1.33
2023-03-27T10:43:12.860Z,0.97
2023-03-27T10:45:45.719Z,1.10
2023-03-27T10:48:17.973Z,1.20
2023-03-27T10:50:53.337Z,1.40
2023-03-27T10:53:25.899Z,0.93
2023-03-27T10:55:59.141Z,0.80
2023-03-27T10:58:30.213Z,1.00
2023-03-27T11:01:02.668Z,1.13
2023-03-27T11:03:33.563Z,0.80
2023-03-27T11:06:03.118Z,1.23
2023-03-27T11:08:33.659Z,1.40
2023-03-27T11:11:06.044Z,0.80
2023-03-27T11:13:35.070Z,0.90
2023-03-27T11:16:09.127Z,1.23
2023-03-27T11:18:39.403Z,1.17
2023-03-27T11:21:12.625Z,1.00
2023-03-27T11:23:44.584Z,0.90
2023-03-27T11:26:15.701Z,1.00
2023-03-27T11:28:47.073Z,1.27
2023-03-27T11:31:18.939Z,0.97
2023-03-27T11:33:51.293Z,0.80
2023-03-27T11:36:29.629Z,1.83
2023-03-27T11:39:06.450Z,1.20
2023-03-27T11:41:34.650Z,1.90
2023-03-27T11:44:04.081Z,0.90
2023-03-27T11:46:40.379Z,1.50
2023-03-27T11:49:14.746Z,1.17
2023-03-27T11:51:51.573Z,1.40
2023-03-27T11:54:24.893Z,1.27
2023-03-27T11:56:54.576Z,1.10
2023-03-27T11:59:29.880Z,1.93
2023-03-27T12:01:59.902Z,1.40
2023-03-27T12:04:36.547Z,1.27
2023-03-27T12:07:12.239Z,1.10
2023-03-27T12:09:51.047Z,1.00
2023-03-27T12:12:25.946Z,1.63
2023-03-27T12:15:00.026Z,1.03
2023-03-27T12:17:33.089Z,1.00
2023-03-27T12:20:17.524Z,1.60
2023-03-27T12:22:50.534Z,1.40
2023-03-27T12:25:39.828Z,1.27
2023-03-27T12:28:22.202Z,0.90
2023-03-27T12:30:54.510Z,1.20
2023-03-27T12:33:32.149Z,1.17
2023-03-27T12:36:02.825Z,1.70
2023-03-27T12:38:32.102Z,1.63
2023-03-27T12:41:08.619Z,1.50
2023-03-27T12:43:39.688Z,1.20
2023-03-27T12:46:08.969Z,0.97
2023-03-27T12:48:47.559Z,1.27
2023-03-27T12:51:17.492Z,1.10
2023-03-27T12:53:50.354Z,1.20
2023-03-27T12:56:39.115Z,1.20
2023-03-27T12:59:22.158Z,1.17
2023-03-27T13:02:09.060Z,1.20
2023-03-27T13:04:48.349Z,1.30
2023-03-27T13:07:21.258Z,1.33
2023-03-27T13:09:56.652Z,1.60
2023-03-27T13:12:33.168Z,1.10
2023-03-27T13:15:13.733Z,1.20
2023-03-27T13:17:57.833Z,1.73
2023-03-27T13:20:30.883Z,1.43
2023-03-27T13:23:04.126Z,1.30
2023-03-27T13:25:34.239Z,1.20
2023-03-27T13:28:32.508Z,1.10
2023-03-27T13:31:02.981Z,1.10
2023-03-27T13:33:40.843Z,1.33
2023-03-27T13:36:14.238Z,1.10
2023-03-27T13:38:51.699Z,1.30
2023-03-27T13:41:51.892Z,1.10
2023-03-27T13:44:23.330Z,0.97
2023-03-27T13:46:55.852Z,1.20
2023-03-27T13:49:32.281Z,0.83
2023-03-27T13:52:15.495Z,1.17
2023-03-27T13:55:01.488Z,0.90
2023-03-27T13:57:47.322Z,1.20
2023-03-27T14:00:26.540Z,1.00
2023-03-27T14:03:10.784Z,1.10
2023-03-27T14:05:57.072Z,0.73
2023-03-27T14:08:31.797Z,0.90
2023-03-27T14:11:17.718Z,1.00
2023-03-27T14:13:52.541Z,0.90
2023-03-27T14:16:39.939Z,0.93
2023-03-27T14:19:32.207Z,1.00
2023-03-27T14:22:03.559Z,1.17
2023-03-27T14:24:33.768Z,0.80
2023-03-27T14:27:02.355Z,1.20
2023-03-27T14:29:32.448Z,1.07
2023-03-27T14:32:04.526Z,1.40
2023-03-27T14:34:47.242Z,0.80
2023-03-27T14:37:29.822Z,1.10
2023-03-27T14:39:58.457Z,1.47
2023-03-27T14:42:31.130Z,1.20
2023-03-27T14:45:10.994Z,1.00
2023-03-27T14:47:39.419Z,1.83
2023-03-27T14:50:07.940Z,1.00
2023-03-27T14:52:37.473Z,1.00
2023-03-27T14:55:06.283Z,0.93
2023-03-27T14:57:34.640Z,0.93
2023-03-27T15:00:06.665Z,1.10
2023-03-27T15:02:35.948Z,1.50
2023-03-27T15:05:06.444Z,1.20
2023-03-27T15:07:35.615Z,1.33
2023-03-27T15:10:20.489Z,1.30
2023-03-27T15:12:48.735Z,0.80
2023-03-27T15:15:27.547Z,1.10
2023-03-27T15:17:59.810Z,1.10
2023-03-27T15:20:30.430Z,1.87
2023-03-27T15:23:01.382Z,1.20
2023-03-27T15:25:34.722Z,1.40
2023-03-27T15:28:06.681Z,1.20
2023-03-27T15:30:37.361Z,1.27
2023-03-27T15:33:07.173Z,1.03
2023-03-27T15:35:36.956Z,1.00
2023-03-27T15:38:06.761Z,1.23
2023-03-27T15:40:39.050Z,1.23
2023-03-27T15:43:20.949Z,1.00
2023-03-27T15:46:02.099Z,0.90
2023-03-27T15:48:35.665Z,1.00
2023-03-27T15:51:04.972Z,1.27
2023-03-27T15:53:34.419Z,1.10
2023-03-27T15:56:05.209Z,1.10
2023-03-27T15:58:40.458Z,1.20
2023-03-27T16:01:18.464Z,1.00
2023-03-27T16:03:48.403Z,0.90
2023-03-27T16:06:24.556Z,1.07
2023-03-27T16:08:52.795Z,1.10
2023-03-27T16:11:41.808Z,1.20
2023-03-27T16:14:21.074Z,0.90
2023-03-27T16:16:49.666Z,1.00
2023-03-27T16:19:17.936Z,1.00
2023-03-27T16:21:56.155Z,1.30
2023-03-27T16:24:24.397Z,1.00
2023-03-27T16:26:54.973Z,1.00
2023-03-27T16:29:23.234Z,1.03
2023-03-27T16:31:51.467Z,0.90
2023-03-27T16:34:22.254Z,1.20
2023-03-27T16:36:52.384Z,1.53
2023-03-27T16:39:20.665Z,0.97
2023-03-27T16:41:48.917Z,1.03
2023-03-27T16:44:18.884Z,1.20
2023-03-27T16:46:47.414Z,0.87
2023-03-27T16:49:15.728Z,1.10
2023-03-27T16:51:43.913Z,1.33
2023-03-27T16:54:12.301Z,1.07
2023-03-27T16:56:40.454Z,1.10
2023-03-27T16:59:08.621Z,1.17
2023-03-27T17:01:38.594Z,1.30
2023-03-27T17:04:06.936Z,1.10
2023-03-27T17:06:35.561Z,0.93
2023-03-27T17:09:03.770Z,0.90
2023-03-27T17:11:32.147Z,1.20
2023-03-27T17:14:00.402Z,1.10
2023-03-27T17:16:28.823Z,1.47
2023-03-27T17:18:58.423Z,1.50
2023-03-27T17:21:27.156Z,1.17
2023-03-27T17:23:55.367Z,0.80
2023-03-27T17:26:24.048Z,1.00
2023-03-27T17:28:52.275Z,1.80
2023-03-27T17:31:20.622Z,1.47
2023-03-27T17:33:48.905Z,1.40
2023-03-27T17:36:26.770Z,1.10
2023-03-27T17:39:03.693Z,1.13
2023-03-27T17:41:31.986Z,1.23
2023-03-27T17:44:00.348Z,1.60
2023-03-27T17:46:28.551Z,1.30
2023-03-27T17:48:57.147Z,1.20
2023-03-27T17:51:26.706Z,1.40
2023-03-27T17:53:54.917Z,1.30
2023-03-27T17:56:23.040Z,1.57
2023-03-27T17:58:51.227Z,1.43
2023-03-27T18:01:20.657Z,1.10
2023-03-27T18:03:49.294Z,1.40
2023-03-27T18:06:18.421Z,1.30
2023-03-27T18:08:48.237Z,1.43
2023-03-27T18:11:17.031Z,1.20
2023-03-27T18:13:51.236Z,1.30
2023-03-27T18:16:19.895Z,1.30
2023-03-27T18:18:48.296Z,0.90
2023-03-27T18:21:16.677Z,1.07
2023-03-27T18:23:45.688Z,1.47
2023-03-27T18:26:16.564Z,1.10
2023-03-27T18:28:44.980Z,1.20
2023-03-27T18:31:13.585Z,1.37
2023-03-27T18:33:41.892Z,1.17
2023-03-27T18:36:11.859Z,1.10
2023-03-27T18:38:40.825Z,1.13
2023-03-27T18:41:09.094Z,1.37
2023-03-27T18:43:38.772Z,1.20
2023-03-27T18:46:08.407Z,1.10
2023-03-27T18:48:36.954Z,1.10
2023-03-27T18:51:06.322Z,1.17
2023-03-27T18:53:34.522Z,1.00
2023-03-27T18:56:03.301Z,1.53
2023-03-27T18:58:31.629Z,1.10
2023-03-27T19:01:01.611Z,1.17
2023-03-27T19:03:35.051Z,1.23
2023-03-27T19:06:04.118Z,1.37
2023-03-27T19:08:32.636Z,1.30
2023-03-27T19:11:01.007Z,1.43
2023-03-27T19:13:29.455Z,1.30
2023-03-27T19:15:57.688Z,1.00
2023-03-27T19:18:29.938Z,1.57
2023-03-27T19:21:00.700Z,1.40
2023-03-27T19:23:29.766Z,1.37
2023-03-27T19:25:57.973Z,1.37
2023-03-27T19:28:26.188Z,1.63
2023-03-27T19:30:54.443Z,1.30
2023-03-27T19:33:22.708Z,1.40
2023-03-27T19:35:54.986Z,1.30
2023-03-27T19:38:23.175Z,1.47
2023-03-27T19:40:51.343Z,1.20
2023-03-27T19:43:21.403Z,1.40
2023-03-27T19:46:04.419Z,1.30
2023-03-27T19:48:42.282Z,1.17
2023-03-27T19:51:11.798Z,1.40
2023-03-27T19:53:39.991Z,1.10
2023-03-27T19:56:08.206Z,1.67
2023-03-27T19:58:36.424Z,1.27
2023-03-27T20:01:04.641Z,1.07
2023-03-27T20:03:33.297Z,1.80
2023-03-27T20:06:07.764Z,1.43
2023-03-27T20:08:39.568Z,1.60
2023-03-27T20:11:08.004Z,1.33
2023-03-27T20:13:49.012Z,1.60
2023-03-27T20:16:24.810Z,1.50
2023-03-27T20:19:03.228Z,1.30
2023-03-27T20:21:32.414Z,1.30
2023-03-27T20:24:02.040Z,1.20
2023-03-27T20:26:32.424Z,1.13
2023-03-27T20:29:00.860Z,1.00
2023-03-27T20:31:29.107Z,1.53
2023-03-27T20:33:57.341Z,1.37
2023-03-27T20:36:26.121Z,0.93
2023-03-27T20:38:56.381Z,1.47
2023-03-27T20:41:27.138Z,0.80
2023-03-27T20:43:55.367Z,1.47
2023-03-27T20:46:23.811Z,1.63
2023-03-27T20:48:54.916Z,1.30
2023-03-27T20:51:24.233Z,1.43
2023-03-27T20:53:56.039Z,1.20
2023-03-27T20:56:26.222Z,1.30
2023-03-27T20:58:54.594Z,1.20
2023-03-27T21:01:27.641Z,1.07
2023-03-27T21:03:58.349Z,1.10
2023-03-27T21:06:27.058Z,1.30
2023-03-27T21:08:55.286Z,1.67
2023-03-27T21:11:23.486Z,1.30
2023-03-27T21:13:52.998Z,1.43
2023-03-27T21:16:21.324Z,1.80
2023-03-27T21:18:49.548Z,1.53
2023-03-27T21:21:17.727Z,1.50
2023-03-27T21:23:47.981Z,1.47
2023-03-27T21:26:16.571Z,2.37
2023-03-27T21:28:44.779Z,2.80
2023-03-27T21:31:14.424Z,1.80
2023-03-27T21:33:42.596Z,2.10
2023-03-27T21:36:12.744Z,2.07
2023-03-27T21:38:41.187Z,1.73
2023-03-27T21:41:09.364Z,1.80
2023-03-27T21:43:37.527Z,2.47
2023-03-27T21:46:06.355Z,2.03
2023-03-27T21:48:35.917Z,1.83
2023-03-27T21:51:05.628Z,1.43
2023-03-27T21:53:33.928Z,1.47
2023-03-27T21:56:02.231Z,2.27
2023-03-27T21:58:30.468Z,2.60
2023-03-27T22:00:59.149Z,6.20
2023-03-27T22:03:27.524Z,7.83
2023-03-27T22:06:08.411Z,3.47
2023-03-27T22:08:40.002Z,2.50
2023-03-27T22:11:08.583Z,2.23
2023-03-27T22:13:37.140Z,1.20
2023-03-27T22:16:08.902Z,1.20
2023-03-27T22:18:37.209Z,1.43
2023-03-27T22:21:14.784Z,1.40
2023-03-27T22:23:43.032Z,1.37
2023-03-27T22:26:11.509Z,1.60
2023-03-27T22:28:39.657Z,1.40
2023-03-27T22:31:08.221Z,1.80
2023-03-27T22:33:36.497Z,1.00
2023-03-27T22:36:04.671Z,1.33
2023-03-27T22:38:34.579Z,1.50
2023-03-27T22:41:02.808Z,1.63
2023-03-27T22:43:31.052Z,1.20
2023-03-27T22:46:05.825Z,1.40
2023-03-27T22:48:34.217Z,1.70
2023-03-27T22:51:02.415Z,1.70
2023-03-27T22:53:31.713Z,1.30
2023-03-27T22:56:02.135Z,1.27
2023-03-27T22:58:30.883Z,1.73
2023-03-27T23:00:59.135Z,1.20
2023-03-27T23:03:28.387Z,1.10
2023-03-27T23:05:57.316Z,1.17
2023-03-27T23:08:27.136Z,1.43
2023-03-27T23:10:56.074Z,2.40
2023-03-27T23:13:25.579Z,1.30
2023-03-27T23:15:53.774Z,1.57
2023-03-27T23:18:24.496Z,1.20
2023-03-27T23:20:56.194Z,1.10
2023-03-27T23:23:24.408Z,1.30
2023-03-27T23:25:52.604Z,1.20
2023-03-27T23:28:21.086Z,1.70
2023-03-27T23:30:58.850Z,1.20
2023-03-27T23:33:27.308Z,1.23
2023-03-27T23:35:56.258Z,1.20
2023-03-27T23:38:24.426Z,1.60
2023-03-27T23:40:58.477Z,1.20
2023-03-27T23:43:27.255Z,1.20
2023-03-27T23:45:59.273Z,1.63
2023-03-27T23:48:27.998Z,1.60
2023-03-27T23:50:56.906Z,2.43
2023-03-27T23:53:26.151Z,1.60
2023-03-27T23:55:55.971Z,1.00
2023-03-27T23:58:24.759Z,1.40
